Kasota, MN (56050)

7:11 AM CDT on April 18, 2015 (GMT -0500)
KMNSTPET2 | | Change Station
CLOSE
Current Station
Personal Weather Station
Location: St Peter, MN
Elevation: 1024 ft
Nearby Weather Stations

Elev 1024 ft 44.27 °N, 93.88 °W | Updated 11 minutes ago

Partly Cloudy
Partly Cloudy
49.8 °F
Feels Like 50 °F
N
2.1
Wind Variable Wind from NE
Gusts 6.0 mph

Today
High -- | Low -- °F
--% Chance of Precip.
Yesterday
High -- | Low -- °F
Precip. -- in
6:27 AM 8:03 PM
Waning Crescent, 0% visible
Pressure 30.05 in
Visibility 10.0 miles
Clouds Clear
Windchill 50 °F
Dew Point 35 °F
Humidity 57%
Rainfall 0.00 in
Snow Depth Not available.
UV 0 out of 12
Pollen 8.50 out of 12
Air Quality Not available.
Flu Activity Local Activity
METAR KMKT 181155Z AUTO 02005KT 10SM CLR 12/00 A3005 RMK AO1 10150 20080 54000

More Conditions Fewer Conditions

Pressure 30.05 in
Visibility 10.0 miles
Clouds Clear
Windchill 50 °F
Dew Point 35 °F
Humidity 57%
Rainfall 0.00 in
Snow Depth Not available.
UV 0 out of 12
Pollen 8.50 out of 12
Air Quality Not available.
Flu Activity Local Activity
METAR KMKT 181155Z AUTO 02005KT 10SM CLR 12/00 A3005 RMK AO1 10150 20080 54000

More Conditions Fewer Conditions

10-Day Weather Forecast

Almanac

Astronomy

Apr. 18, 2015 Rise Set
Actual Time
Civil Twilight
Nautical Twilight
Astronomical Twilight
Moon
Length of Visible Light
Length of Day
Tomorrow will be .
, % of the Moon is Illuminated

Today's Extremes

State Highs State Lows

Community

WunderPhotos

Upload Photos

1,814,375 photos uploaded!

WunderBlogs® & News

Nearby

Air Quality

  Air Quality AQ Index Pollutant
Not available.

Snow Depth

Station Depth Elevation

Earthquake Activity

City Distance Mag. Time & Date
Minimum magnitude displayed is 2.5.

Coastal Water Temperatures

Place Temperature

Stations

Nearby Weather Stations

Station Location Temp. Windchill Dew Point Humidity Wind Precip. Elev Updated Type